Time;durP1;ratioP1;P1;durP2;ratioP2;P2;SDS_P1;SDS_P2;PMS_P1;PMS_P2;Temp;Humidity;BMP_temperature;BMP_pressure;BME280_temperature;BME280_humidity;BME280_pressure;Samples;Min_cycle;Max_cycle;Signal;HPM_P1;HPM_P2
2022/07/15 00:00:15;;;;;;;1.13;0.97;;;12.70;99.90;;;;;;4927998;28;20325;-95
2022/07/15 00:02:40;;;;;;;;;;;12.70;99.90;;;;;;4941516;28;20050;-95
2022/07/15 00:05:07;;;;;;;3.25;1.48;;;12.80;99.90;;;;;;4928039;28;19923;-95
2022/07/15 00:07:34;;;;;;;2.95;1.52;;;12.80;99.90;;;;;;4945334;28;20054;-94
2022/07/15 00:10:15;;;;;;;2.70;1.30;;;12.80;99.90;;;;;;4958339;28;20040;-94
2022/07/15 00:12:46;;;;;;;1.33;1.00;;;12.90;99.90;;;;;;4954092;28;20109;-94
2022/07/15 00:15:12;;;;;;;3.17;1.35;;;12.90;99.90;;;;;;4975345;28;20054;-95
2022/07/15 00:17:39;;;;;;;3.13;1.83;;;12.90;99.90;;;;;;4945754;28;20047;-94
2022/07/15 00:20:05;;;;;;;;;;;13.00;99.90;;;;;;4945200;28;20046;-90
2022/07/15 00:22:31;;;;;;;1.27;0.93;;;13.00;99.90;;;;;;4966196;28;19928;-91
2022/07/15 00:24:57;;;;;;;1.93;1.83;;;13.00;99.90;;;;;;4958856;28;20555;-93
2022/07/15 00:27:26;;;;;;;2.28;1.10;;;13.10;99.90;;;;;;4984644;28;20306;-95
2022/07/15 00:29:52;;;;;;;2.83;2.55;;;13.10;99.90;;;;;;4976772;28;20054;-94
2022/07/15 00:32:17;;;;;;;1.13;1.03;;;13.10;99.90;;;;;;4945623;28;20043;-95
2022/07/15 00:34:43;;;;;;;1.10;0.90;;;13.10;99.90;;;;;;4937922;28;20043;-95
2022/07/15 00:37:09;;;;;;;5.63;1.50;;;13.10;99.90;;;;;;4938262;28;20051;-94
2022/07/15 00:39:36;;;;;;;2.15;1.42;;;13.20;99.90;;;;;;4941924;28;20109;-92
2022/07/15 00:42:05;;;;;;;2.38;1.50;;;13.20;99.90;;;;;;4955478;28;20039;-95
2022/07/15 00:44:31;;;;;;;1.60;1.13;;;13.20;99.90;;;;;;4977966;28;20034;-95
2022/07/15 00:46:59;;;;;;;2.42;1.48;;;13.10;99.90;;;;;;4958147;28;20114;-95
2022/07/15 00:49:25;;;;;;;2.08;1.10;;;13.10;99.90;;;;;;4943653;28;20050;-95
2022/07/15 00:51:54;;;;;;;1.40;1.30;;;13.10;99.90;;;;;;4971151;28;20101;-95
2022/07/15 00:54:27;;;;;;;4.38;1.65;;;13.10;99.90;;;;;;4969121;28;20102;-95
2022/07/15 00:56:57;;;;;;;3.97;1.15;;;13.10;99.90;;;;;;4954187;28;20117;-95
2022/07/15 00:59:28;;;;;;;4.10;1.40;;;13.10;99.90;;;;;;4939573;28;20047;-95
2022/07/15 01:01:56;;;;;;;4.35;1.45;;;13.20;99.90;;;;;;4973007;28;20097;-95
2022/07/15 01:04:23;;;;;;;3.97;2.05;;;13.10;99.90;;;;;;4963603;28;20587;-95
2022/07/15 01:06:49;;;;;;;3.45;1.60;;;13.10;99.90;;;;;;4966958;28;20061;-93
2022/07/15 01:09:15;;;;;;;3.03;1.27;;;13.20;99.90;;;;;;4946973;28;20051;-94
2022/07/15 01:11:40;;;;;;;1.80;1.40;;;13.10;99.90;;;;;;4973458;28;20133;-95
2022/07/15 01:14:07;;;;;;;1.67;1.23;;;13.20;99.90;;;;;;4947129;28;20072;-95
2022/07/15 01:16:35;;;;;;;1.30;1.20;;;13.20;99.90;;;;;;4975361;28;20049;-94
2022/07/15 01:19:01;;;;;;;2.13;1.30;;;13.20;99.90;;;;;;4956550;28;20495;-91
2022/07/15 01:21:26;;;;;;;1.67;1.10;;;13.20;99.90;;;;;;4978045;28;20050;-94
2022/07/15 01:23:52;;;;;;;2.87;1.60;;;13.20;99.90;;;;;;4923861;28;20047;-94
2022/07/15 01:26:18;;;;;;;3.10;1.23;;;13.20;99.90;;;;;;4940293;28;20501;-94
2022/07/15 01:28:44;;;;;;;2.20;1.40;;;13.20;99.90;;;;;;4939728;28;20079;-94
2022/07/15 01:31:09;;;;;;;3.15;1.60;;;13.20;99.90;;;;;;4953894;28;20050;-94
2022/07/15 01:33:36;;;;;;;2.70;1.43;;;13.10;99.90;;;;;;4989979;28;20043;-94
2022/07/15 01:36:02;;;;;;;3.70;1.40;;;13.10;99.90;;;;;;4955031;28;20053;-95
2022/07/15 01:38:31;;;;;;;4.13;2.05;;;13.10;99.90;;;;;;4928678;28;20612;-94
2022/07/15 01:40:57;;;;;;;4.35;1.60;;;13.20;99.90;;;;;;4966797;28;21737;-94
2022/07/15 01:43:26;;;;;;;2.60;1.73;;;13.10;99.90;;;;;;4946884;28;20161;-95
2022/07/15 01:45:51;;;;;;;2.47;2.28;;;13.10;99.90;;;;;;4943922;28;20053;-93
2022/07/15 01:51:01;;;;;;;2.50;1.80;;;13.10;99.90;;;;;;4961432;28;20089;-94
2022/07/15 01:53:28;;;;;;;2.73;1.43;;;13.20;99.90;;;;;;4980441;28;20148;-91
2022/07/15 01:55:55;;;;;;;5.72;1.55;;;13.20;99.90;;;;;;4957340;28;20049;-91
2022/07/15 01:58:20;;;;;;;5.28;2.55;;;13.20;99.90;;;;;;4948263;28;20042;-94
2022/07/15 02:00:47;;;;;;;4.45;1.33;;;13.20;99.90;;;;;;4974859;28;20560;-94
2022/07/15 02:03:13;;;;;;;3.55;1.20;;;13.20;99.90;;;;;;4941293;28;20047;-91
2022/07/15 02:05:39;;;;;;;1.50;1.40;;;13.20;99.90;;;;;;4946152;28;20126;-95
2022/07/15 02:08:05;;;;;;;;;;;13.20;99.90;;;;;;4969553;28;20338;-95
2022/07/15 02:10:39;;;;;;;4.47;2.45;;;13.20;99.90;;;;;;4974868;28;19969;-94
2022/07/15 02:13:09;;;;;;;2.47;2.13;;;13.20;99.90;;;;;;4942046;28;20259;-94
2022/07/15 02:15:35;;;;;;;3.35;1.55;;;13.20;99.90;;;;;;4945491;28;20042;-94
2022/07/15 02:18:02;;;;;;;3.53;1.75;;;13.20;99.90;;;;;;4964186;28;20219;-94
2022/07/15 02:20:28;;;;;;;8.68;4.00;;;13.20;99.90;;;;;;4966903;28;20050;-94
2022/07/15 02:22:57;;;;;;;2.28;1.17;;;13.20;99.90;;;;;;4949410;28;20038;-92
2022/07/15 02:25:28;;;;;;;3.10;1.60;;;13.20;99.90;;;;;;4959978;28;20051;-92
2022/07/15 02:27:58;;;;;;;2.20;1.30;;;13.20;99.90;;;;;;4972073;28;20045;-94
2022/07/15 02:30:43;;;;;;;1.45;1.20;;;13.20;99.90;;;;;;4974265;28;20047;-94
2022/07/15 02:33:10;;;;;;;4.63;1.90;;;13.10;99.90;;;;;;4987081;28;20050;-95
2022/07/15 02:35:37;;;;;;;2.85;1.20;;;13.10;99.90;;;;;;4976849;28;20051;-92
2022/07/15 02:38:03;;;;;;;1.20;1.10;;;13.10;99.90;;;;;;4974086;28;20042;-95
2022/07/15 02:40:30;;;;;;;4.60;2.20;;;13.00;99.90;;;;;;4984359;28;20430;-94
2022/07/15 02:42:59;;;;;;;1.73;1.33;;;12.90;99.90;;;;;;4970114;28;20370;-94
2022/07/15 02:45:26;;;;;;;2.92;1.90;;;12.80;99.90;;;;;;4979186;28;20043;-90
2022/07/15 02:47:52;;;;;;;3.72;1.05;;;12.70;99.90;;;;;;4961539;28;20051;-94
2022/07/15 02:50:19;;;;;;;1.30;1.08;;;12.70;99.90;;;;;;4960094;28;20490;-95
2022/07/15 02:52:45;;;;;;;2.22;1.35;;;12.60;99.90;;;;;;4942975;28;20629;-94
2022/07/15 02:55:12;;;;;;;2.78;1.13;;;12.50;99.90;;;;;;4961833;28;20126;-94
2022/07/15 02:57:38;;;;;;;0.95;0.90;;;12.50;99.90;;;;;;4973688;28;20452;-95
2022/07/15 03:00:09;;;;;;;2.33;0.95;;;12.40;99.90;;;;;;4962755;28;20110;-94
2022/07/15 03:02:37;;;;;;;4.38;1.02;;;12.30;99.90;;;;;;4955247;28;20396;-95
2022/07/15 03:05:03;;;;;;;2.35;2.15;;;12.20;99.90;;;;;;4960457;28;20043;-94
2022/07/15 03:07:29;;;;;;;2.17;1.83;;;12.20;99.90;;;;;;4952364;28;20377;-93
2022/07/15 03:09:55;;;;;;;2.83;1.93;;;11.70;99.90;;;;;;4973696;28;20045;-94
2022/07/15 03:12:21;;;;;;;3.63;1.27;;;12.00;99.90;;;;;;4959250;28;20055;-93
2022/07/15 03:14:47;;;;;;;1.17;1.08;;;12.00;99.90;;;;;;4967088;28;20047;-96
2022/07/15 03:17:13;;;;;;;1.87;1.10;;;11.90;99.90;;;;;;4953700;28;20053;-95
2022/07/15 03:19:42;;;;;;;1.63;1.20;;;11.90;99.90;;;;;;4931152;28;20049;-95
2022/07/15 03:22:08;;;;;;;3.67;1.40;;;11.80;99.90;;;;;;4938360;28;20472;-92
2022/07/15 03:24:34;;;;;;;1.58;1.33;;;11.80;99.90;;;;;;4953771;28;20627;-94
2022/07/15 03:27:00;;;;;;;1.93;1.20;;;11.80;99.90;;;;;;4942676;28;20102;-93
2022/07/15 03:29:26;;;;;;;4.53;1.35;;;11.80;99.90;;;;;;4949314;28;20082;-93
2022/07/15 03:31:52;;;;;;;1.40;1.30;;;11.80;99.90;;;;;;4938406;28;20082;-94
2022/07/15 03:34:18;;;;;;;2.20;1.48;;;11.70;99.90;;;;;;4962048;28;20551;-94
2022/07/15 03:36:44;;;;;;;1.67;1.35;;;11.80;99.90;;;;;;4970910;28;20400;-94
2022/07/15 03:39:10;;;;;;;1.70;1.30;;;11.70;99.90;;;;;;4962725;28;20047;-93
2022/07/15 03:41:36;;;;;;;2.40;1.57;;;11.70;99.90;;;;;;4952988;28;20038;-94
2022/07/15 03:44:02;;;;;;;2.33;1.93;;;11.70;99.90;;;;;;4928764;28;20309;-91
2022/07/15 03:46:29;;;;;;;1.75;1.00;;;11.80;99.90;;;;;;4969393;28;20397;-95
2022/07/15 03:48:55;;;;;;;1.73;1.40;;;12.40;99.90;;;;;;4950300;28;20101;-95
2022/07/15 03:51:24;;;;;;;2.90;1.27;;;11.80;99.90;;;;;;4949506;28;20220;-94
2022/07/15 03:53:50;;;;;;;3.83;1.60;;;11.80;99.90;;;;;;4943349;28;20046;-93
2022/07/15 03:56:16;;;;;;;3.08;1.48;;;11.80;99.90;;;;;;4952125;28;20098;-95
2022/07/15 03:58:44;;;;;;;3.03;1.48;;;11.90;99.90;;;;;;4950789;28;20041;-94
2022/07/15 04:01:10;;;;;;;1.75;1.55;;;11.80;99.90;;;;;;4943535;28;20417;-93
2022/07/15 04:03:36;;;;;;;2.67;1.77;;;11.90;99.90;;;;;;4955065;28;20070;-90
2022/07/15 04:06:01;;;;;;;4.63;2.13;;;11.90;99.90;;;;;;4919265;28;20042;-93
2022/07/15 04:08:27;;;;;;;4.77;1.83;;;11.90;99.90;;;;;;4949591;28;20497;-93
2022/07/15 04:10:53;;;;;;;5.37;2.50;;;12.00;99.90;;;;;;4969733;28;20638;-93
2022/07/15 04:13:19;;;;;;;3.40;1.60;;;12.00;99.90;;;;;;4965544;28;20054;-93
2022/07/15 04:15:46;;;;;;;1.93;1.37;;;12.00;99.90;;;;;;4940182;28;20086;-92
2022/07/15 04:18:12;;;;;;;1.70;1.25;;;12.00;99.90;;;;;;4930751;28;20046;-93
2022/07/15 04:20:38;;;;;;;1.58;1.23;;;12.00;99.90;;;;;;4959782;28;20073;-89
2022/07/15 04:23:04;;;;;;;1.47;1.37;;;12.00;99.90;;;;;;4935215;28;20050;-93
2022/07/15 04:25:29;;;;;;;3.15;1.80;;;12.00;99.90;;;;;;4950564;28;20153;-92
2022/07/15 04:27:55;;;;;;;3.53;1.40;;;12.00;99.90;;;;;;4953126;28;20046;-91
2022/07/15 04:30:21;;;;;;;1.90;1.80;;;12.00;99.90;;;;;;4937359;28;20038;-92
2022/07/15 04:32:46;;;;;;;3.80;1.63;;;12.10;99.90;;;;;;4977568;28;20042;-93
2022/07/15 04:35:12;;;;;;;2.50;1.67;;;12.10;99.90;;;;;;4973558;28;20047;-93
2022/07/15 04:37:38;;;;;;;2.27;1.97;;;12.10;99.90;;;;;;4962183;28;20488;-88
2022/07/15 04:40:07;;;;;;;4.47;2.13;;;12.10;99.90;;;;;;4958063;28;20046;-93
2022/07/15 04:42:32;;;;;;;1.80;1.15;;;12.10;99.90;;;;;;4979820;28;20092;-93
2022/07/15 04:44:58;;;;;;;4.07;1.67;;;12.20;99.90;;;;;;4976358;28;20039;-93
2022/07/15 04:47:24;;;;;;;1.63;1.53;;;12.20;99.90;;;;;;4953690;28;20053;-91
2022/07/15 04:52:34;;;;;;;3.35;1.35;;;12.20;99.90;;;;;;4959355;28;20046;-92
2022/07/15 04:55:00;;;;;;;4.60;2.00;;;12.30;99.90;;;;;;4949964;28;20051;-91
2022/07/15 04:57:25;;;;;;;1.77;1.40;;;12.30;99.90;;;;;;4944639;28;20042;-90
2022/07/15 04:59:51;;;;;;;2.17;1.27;;;12.30;99.90;;;;;;4955318;28;20051;-91
2022/07/15 05:02:17;;;;;;;3.20;1.63;;;12.40;99.90;;;;;;4926741;28;20133;-93
2022/07/15 05:04:42;;;;;;;1.33;1.20;;;12.40;99.90;;;;;;4946834;28;20382;-89
2022/07/15 05:07:08;;;;;;;1.83;1.60;;;12.40;99.90;;;;;;4983792;28;20051;-91
2022/07/15 05:09:34;;;;;;;8.47;1.93;;;12.40;99.90;;;;;;4955704;28;20523;-93
2022/07/15 05:12:00;;;;;;;2.93;1.63;;;12.40;99.90;;;;;;4944277;28;20309;-92
2022/07/15 05:14:25;;;;;;;1.97;1.77;;;12.50;99.90;;;;;;4913407;28;20074;-93
2022/07/15 05:16:51;;;;;;;2.13;1.60;;;12.50;99.90;;;;;;4941178;28;20055;-94
2022/07/15 05:19:17;;;;;;;2.20;1.63;;;12.50;99.90;;;;;;4917018;28;20043;-94
2022/07/15 05:21:43;;;;;;;2.03;1.20;;;12.60;99.90;;;;;;4916900;28;20342;-89
2022/07/15 05:24:09;;;;;;;2.60;1.00;;;12.60;99.90;;;;;;4950679;28;20369;-94
2022/07/15 05:26:34;;;;;;;0.70;0.70;;;12.60;99.90;;;;;;4946115;28;20042;-93
2022/07/15 05:29:00;;;;;;;1.20;0.80;;;12.70;99.90;;;;;;4949758;28;20050;-94
2022/07/15 05:31:27;;;;;;;5.32;1.35;;;12.80;99.90;;;;;;4930923;28;20070;-93
2022/07/15 05:33:53;;;;;;;1.83;0.93;;;12.80;99.90;;;;;;4912867;28;20082;-93
2022/07/15 05:36:19;;;;;;;3.22;1.15;;;12.90;99.90;;;;;;4938520;28;20047;-92
2022/07/15 05:38:45;;;;;;;1.90;0.97;;;12.90;99.90;;;;;;4926194;28;20049;-93
2022/07/15 05:41:11;;;;;;;3.72;0.90;;;13.00;99.90;;;;;;4950403;28;20047;-94
2022/07/15 05:43:37;;;;;;;0.75;0.60;;;13.00;99.90;;;;;;4949873;28;20126;-89
2022/07/15 05:46:04;;;;;;;1.25;0.77;;;13.00;99.90;;;;;;4928126;28;20043;-88
2022/07/15 05:48:30;;;;;;;1.20;0.70;;;13.00;99.90;;;;;;4942346;28;20098;-88
2022/07/15 05:50:56;;;;;;;2.08;0.68;;;13.00;99.90;;;;;;4931816;28;20050;-88
2022/07/15 05:53:22;;;;;;;0.75;0.57;;;13.10;99.90;;;;;;4939152;28;20073;-89
2022/07/15 05:55:47;;;;;;;0.90;0.90;;;13.10;99.90;;;;;;4914719;28;20499;-90
2022/07/15 05:58:13;;;;;;;0.70;0.60;;;13.10;99.90;;;;;;4937738;28;20108;-88
2022/07/15 06:00:39;;;;;;;2.27;0.83;;;13.10;99.90;;;;;;4953492;28;20043;-91
2022/07/15 06:03:05;;;;;;;2.03;1.77;;;13.40;99.90;;;;;;4961317;28;20039;-95
2022/07/15 06:05:32;;;;;;;0.98;0.70;;;13.80;99.90;;;;;;4957025;28;20057;-92
2022/07/15 06:07:58;;;;;;;1.13;0.70;;;14.10;99.90;;;;;;4908894;28;20114;-91
2022/07/15 06:10:24;;;;;;;1.90;0.90;;;14.40;99.90;;;;;;4951965;28;20039;-90
2022/07/15 06:12:50;;;;;;;1.20;0.60;;;14.80;99.90;;;;;;4939962;29;20052;-87
2022/07/15 06:15:15;;;;;;;1.97;1.77;;;15.00;99.90;;;;;;4943657;28;20039;-88
2022/07/15 06:17:41;;;;;;;0.60;0.60;;;15.10;99.90;;;;;;4933888;28;20113;-93
2022/07/15 06:20:08;;;;;;;0.70;0.68;;;15.00;99.90;;;;;;4954264;28;20058;-94
2022/07/15 06:22:33;;;;;;;0.70;0.70;;;14.90;99.90;;;;;;4926174;28;20073;-94
2022/07/15 06:24:59;;;;;;;0.83;0.63;;;14.90;99.90;;;;;;4927249;28;20075;-93
2022/07/15 06:27:29;;;;;;;4.68;0.85;;;14.00;99.90;;;;;;4927977;28;20556;-90
2022/07/15 06:29:57;;;;;;;2.97;0.65;;;14.90;99.90;;;;;;4924619;28;20115;-92
2022/07/15 06:32:23;;;;;;;0.70;0.70;;;14.90;99.90;;;;;;4940079;29;20130;-94
2022/07/15 06:34:48;;;;;;;0.63;0.50;;;14.90;99.90;;;;;;4942652;28;20133;-93
2022/07/15 06:37:14;;;;;;;0.73;0.60;;;14.90;99.90;;;;;;4941095;28;20035;-93
2022/07/15 06:39:40;;;;;;;0.77;0.47;;;15.00;99.90;;;;;;4909200;28;20450;-92
2022/07/15 06:42:05;;;;;;;0.90;0.70;;;15.00;99.90;;;;;;4949658;28;20047;-93
2022/07/15 06:44:31;;;;;;;0.50;0.50;;;15.00;99.90;;;;;;4939158;28;20047;-91
2022/07/15 06:46:57;;;;;;;0.90;0.50;;;15.10;99.90;;;;;;4922777;28;20050;-91
2022/07/15 06:49:26;;;;;;;1.27;0.50;;;15.10;99.90;;;;;;4923340;28;20090;-90
2022/07/15 06:51:51;;;;;;;0.47;0.47;;;15.10;99.90;;;;;;4923685;28;20047;-93
2022/07/15 06:54:18;;;;;;;0.50;0.50;;;15.20;99.90;;;;;;4905996;28;20098;-90
2022/07/15 06:56:44;;;;;;;0.50;0.45;;;15.20;99.90;;;;;;4923102;28;20437;-91
2022/07/15 06:59:10;;;;;;;1.58;0.40;;;15.40;99.90;;;;;;4930478;28;20035;-87
2022/07/15 07:01:36;;;;;;;0.60;0.60;;;15.60;99.90;;;;;;4930835;28;20102;-90
2022/07/15 07:04:13;;;;;;;0.55;0.55;;;15.80;99.90;;;;;;4947543;28;20046;-93
2022/07/15 07:06:40;;;;;;;0.88;0.88;;;16.00;99.90;;;;;;4929645;28;20051;-95
2022/07/15 07:09:08;;;;;;;0.63;0.63;;;16.20;99.90;;;;;;4928940;28;20051;-96
2022/07/15 07:11:34;;;;;;;0.75;0.57;;;16.50;99.90;;;;;;4921092;28;20059;-90
2022/07/15 07:14:00;;;;;;;5.85;0.98;;;16.60;99.90;;;;;;4931877;28;20057;-90
2022/07/15 07:16:26;;;;;;;0.73;0.50;;;17.50;99.90;;;;;;4968263;28;20053;-93
2022/07/15 07:18:52;;;;;;;1.77;1.10;;;17.00;99.90;;;;;;4931436;29;20057;-92
2022/07/15 07:21:19;;;;;;;1.98;0.90;;;17.10;99.90;;;;;;4914649;29;20403;-94
2022/07/15 07:23:45;;;;;;;0.82;0.55;;;17.20;99.90;;;;;;4920518;29;20047;-94
2022/07/15 07:26:12;;;;;;;0.95;0.65;;;17.30;99.90;;;;;;4913610;29;20055;-96
2022/07/15 07:28:40;;;;;;;1.50;0.80;;;17.30;99.90;;;;;;4942108;28;20434;-94
2022/07/15 07:31:07;;;;;;;1.55;0.57;;;17.30;99.90;;;;;;4942061;28;21403;-95
2022/07/15 07:33:33;;;;;;;0.70;0.40;;;17.40;99.90;;;;;;4952438;28;20062;-95
2022/07/15 07:35:59;;;;;;;0.47;0.38;;;17.50;99.90;;;;;;4960411;28;20043;-94
2022/07/15 07:38:24;;;;;;;1.27;0.50;;;17.70;99.90;;;;;;4961335;28;20117;-96
2022/07/15 07:40:50;;;;;;;0.95;0.70;;;17.70;99.90;;;;;;4929583;28;20198;-93
2022/07/15 07:43:25;;;;;;;0.75;0.73;;;17.00;99.90;;;;;;4942740;28;20046;-94
2022/07/15 07:46:01;;;;;;;0.75;0.50;;;17.50;99.90;;;;;;4968315;28;20046;-96
2022/07/15 07:48:37;;;;;;;;;;;;;;;;;;;;;
2022/07/15 07:51:14;;;;;;;;;;;;;;;;;;;;;
2022/07/15 07:53:42;;;;;;;0.60;0.35;;;17.50;99.90;;;;;;4955019;29;20058;-96
2022/07/15 07:56:20;;;;;;;1.17;0.60;;;17.60;99.90;;;;;;4923964;29;20057;-96
2022/07/15 07:58:55;;;;;;;1.33;0.40;;;17.70;99.90;;;;;;4922852;29;20561;-96
2022/07/15 08:01:26;;;;;;;0.35;0.32;;;17.80;99.90;;;;;;4922486;29;20109;-96
2022/07/15 08:03:52;;;;;;;2.92;1.25;;;17.50;99.90;;;;;;4922675;29;20059;-95
2022/07/15 08:09:22;;;;;;;1.10;0.40;;;17.80;99.90;;;;;;4931795;29;20048;-96
2022/07/15 08:11:50;;;;;;;0.93;0.70;;;17.70;99.90;;;;;;4925493;29;20059;-90
2022/07/15 08:14:19;;;;;;;2.17;0.43;;;17.60;99.90;;;;;;4970209;28;20058;-95
2022/07/15 08:16:55;;;;;;;1.60;0.32;;;17.50;99.90;;;;;;4945241;29;20051;-93
2022/07/15 08:19:21;;;;;;;1.13;0.40;;;17.40;99.90;;;;;;4925078;29;20102;-91
2022/07/15 08:22:27;;;;;;;3.75;0.43;;;17.20;99.90;;;;;;4941054;28;20039;-96
2022/07/15 08:32:22;;;;;;;0.85;0.32;;;16.80;99.90;;;;;;4969790;28;20108;-95
2022/07/15 08:35:40;;;;;;;1.40;0.60;;;16.70;99.90;;;;;;4962876;28;20114;-96
2022/07/15 08:38:29;;;;;;;0.30;0.30;;;16.80;99.90;;;;;;4910767;29;20084;-95
2022/07/15 08:41:29;;;;;;;0.38;0.38;;;17.10;99.90;;;;;;4983747;28;20046;-96
2022/07/15 08:44:20;;;;;;;;;;;;;;;;;;;;;
2022/07/15 08:47:00;;;;;;;0.93;0.20;;;17.60;99.90;;;;;;4961647;28;20043;-95
2022/07/15 08:49:43;;;;;;;;;;;;;;;;;;;;;
2022/07/15 08:52:40;;;;;;;0.98;0.30;;;17.60;99.90;;;;;;4967526;28;20133;-95
2022/07/15 08:55:07;;;;;;;0.65;0.30;;;17.60;99.90;;;;;;4949003;28;20454;-96
2022/07/15 08:58:06;;;;;;;;;;;;;;;;;;;;;
2022/07/15 09:00:38;;;;;;;0.75;0.38;;;16.80;99.90;;;;;;4971737;28;20286;-96
2022/07/15 09:03:05;;;;;;;0.52;0.47;;;17.20;99.90;;;;;;4968805;28;20046;-94
2022/07/15 09:05:33;;;;;;;1.25;0.28;;;17.10;99.90;;;;;;4947116;28;20046;-94
2022/07/15 09:08:10;;;;;;;0.35;0.30;;;17.00;99.90;;;;;;4944656;28;20055;-96
2022/07/15 09:11:00;;;;;;;0.98;0.35;;;17.00;99.90;;;;;;4961072;28;20404;-94
2022/07/15 09:13:46;;;;;;;2.17;0.50;;;16.90;99.90;;;;;;4962007;28;20097;-94
2022/07/15 09:16:24;;;;;;;4.95;1.50;;;16.80;99.90;;;;;;4954816;28;20093;-94
2022/07/15 09:18:51;;;;;;;0.68;0.60;;;16.80;99.90;;;;;;4957539;28;20102;-94
2022/07/15 09:21:26;;;;;;;1.92;0.40;;;16.80;99.90;;;;;;4988916;28;20046;-93
2022/07/15 09:23:58;;;;;;;1.45;0.47;;;16.90;99.90;;;;;;4949509;28;20559;-95
2022/07/15 09:26:32;;;;;;;1.17;0.60;;;16.90;99.90;;;;;;4965588;28;20127;-93
2022/07/15 09:29:00;;;;;;;4.35;0.40;;;17.10;99.90;;;;;;4986899;28;20473;-94
2022/07/15 09:34:29;;;;;;;0.32;0.30;;;17.10;99.90;;;;;;4978256;28;20057;-96
2022/07/15 09:37:06;;;;;;;0.30;0.30;;;17.20;99.90;;;;;;4947350;28;20047;-93
2022/07/15 09:39:52;;;;;;;0.73;0.60;;;17.20;99.90;;;;;;4964420;28;20046;-96
2022/07/15 09:42:20;;;;;;;0.90;0.40;;;17.10;99.90;;;;;;4968886;28;20393;-93
2022/07/15 09:44:51;;;;;;;1.38;0.68;;;17.10;99.90;;;;;;4947220;28;20050;-96
2022/07/15 09:47:30;;;;;;;0.70;0.70;;;17.40;99.90;;;;;;4950577;28;20047;-96
2022/07/15 09:50:12;;;;;;;0.75;0.30;;;16.90;99.90;;;;;;4954060;28;20503;-96
2022/07/15 09:55:42;;;;;;;1.00;0.28;;;16.90;99.90;;;;;;4960865;28;20084;-96
2022/07/15 09:58:26;;;;;;;0.90;0.40;;;16.90;99.90;;;;;;4964908;28;20074;-96
2022/07/15 10:00:57;;;;;;;1.65;0.40;;;16.40;99.90;;;;;;4963035;28;20053;-96
2022/07/15 10:03:24;;;;;;;0.22;0.22;;;17.10;99.90;;;;;;4943744;28;20054;-95
2022/07/15 10:05:59;;;;;;;0.30;0.30;;;16.60;99.90;;;;;;4943148;28;20051;-96
2022/07/15 10:08:32;;;;;;;0.30;0.30;;;17.30;99.90;;;;;;4944248;28;20086;-96
2022/07/15 10:11:14;;;;;;;0.20;0.20;;;17.10;99.90;;;;;;4932441;28;20082;-95
2022/07/15 10:13:59;;;;;;;1.48;0.50;;;16.90;99.90;;;;;;4951184;28;20057;-94
2022/07/15 10:16:34;;;;;;;2.97;1.40;;;17.50;99.90;;;;;;4948953;28;20131;-96
2022/07/15 10:19:03;;;;;;;0.52;0.35;;;17.60;99.90;;;;;;4977992;28;20054;-93
2022/07/15 10:21:56;;;;;;;1.55;0.32;;;17.70;99.90;;;;;;4944730;28;20066;-96
2022/07/15 10:24:36;;;;;;;0.35;0.35;;;17.70;99.90;;;;;;4944581;28;20452;-91
2022/07/15 10:27:34;;;;;;;0.20;0.20;;;17.80;99.90;;;;;;4943784;28;20121;-94
2022/07/15 10:30:06;;;;;;;0.73;0.47;;;18.00;99.90;;;;;;4945730;28;20051;-92
2022/07/15 10:33:02;;;;;;;0.38;0.30;;;18.10;99.90;;;;;;4941699;28;20058;-93
2022/07/15 10:35:41;;;;;;;0.63;0.50;;;17.70;99.90;;;;;;4941933;28;20059;-92
2022/07/15 10:38:37;;;;;;;0.47;0.40;;;18.00;99.90;;;;;;4957493;28;20518;-93
2022/07/15 10:41:16;;;;;;;0.38;0.38;;;18.10;99.90;;;;;;4953683;29;20059;-93
2022/07/15 10:43:53;;;;;;;2.50;0.50;;;18.10;99.90;;;;;;4944777;28;20116;-95
2022/07/15 10:46:23;;;;;;;3.58;0.40;;;18.10;99.90;;;;;;4944215;28;20057;-93
2022/07/15 10:49:00;;;;;;;2.60;0.25;;;18.10;99.90;;;;;;4955866;28;20050;-95
2022/07/15 10:51:37;;;;;;;0.20;0.20;;;18.30;99.90;;;;;;4974390;28;20446;-93
2022/07/15 10:54:09;;;;;;;0.30;0.30;;;18.30;99.90;;;;;;4952342;28;20182;-93
2022/07/15 10:56:44;;;;;;;1.67;0.20;;;18.40;99.90;;;;;;4956095;28;20527;-93
2022/07/15 10:59:23;;;;;;;0.52;0.40;;;18.50;99.90;;;;;;4974550;28;20576;-94
2022/07/15 11:02:01;;;;;;;0.50;0.40;;;18.80;99.90;;;;;;4968594;28;20159;-94
2022/07/15 11:04:34;;;;;;;2.08;0.47;;;18.90;99.90;;;;;;4952439;28;20030;-96
2022/07/15 11:07:21;;;;;;;2.28;0.30;;;18.90;99.90;;;;;;4951544;29;20039;-92
2022/07/15 11:09:57;;;;;;;0.22;0.22;;;19.00;99.90;;;;;;4938162;29;20054;-91
2022/07/15 11:12:32;;;;;;;0.93;0.40;;;19.00;99.90;;;;;;4958673;28;20082;-91
2022/07/15 11:15:14;;;;;;;0.40;0.30;;;19.00;99.90;;;;;;4937857;28;20058;-91
2022/07/15 11:17:43;;;;;;;0.20;0.20;;;18.90;99.90;;;;;;4950517;28;20075;-94
2022/07/15 11:20:12;;;;;;;0.25;0.25;;;18.80;99.90;;;;;;4947203;28;20101;-93
2022/07/15 11:22:43;;;;;;;0.50;0.38;;;18.70;99.90;;;;;;4931366;28;20509;-94
2022/07/15 11:25:37;;;;;;;0.77;0.70;;;18.60;99.90;;;;;;4927982;28;20394;-93
2022/07/15 11:28:21;;;;;;;0.95;0.30;;;18.50;99.90;;;;;;4938357;28;20047;-96
2022/07/15 11:30:53;;;;;;;3.03;0.70;;;18.50;99.90;;;;;;4938765;29;20043;-95
2022/07/15 11:33:25;;;;;;;0.77;0.77;;;18.50;99.90;;;;;;4922839;29;20494;-95
2022/07/15 11:35:55;;;;;;;0.40;0.40;;;17.90;99.90;;;;;;4922558;29;20047;-95
2022/07/15 11:38:28;;;;;;;0.45;0.40;;;18.60;99.90;;;;;;4938664;29;20078;-96
2022/07/15 11:46:55;;;;;;;0.30;0.30;;;18.60;99.90;;;;;;4954352;29;20062;-96
2022/07/15 11:49:43;;;;;;;0.50;0.50;;;18.50;99.90;;;;;;4910315;29;20052;-96
2022/07/15 11:52:31;;;;;;;0.60;0.60;;;18.50;99.90;;;;;;4920484;29;20043;-96
2022/07/15 11:55:05;;;;;;;0.75;0.50;;;18.60;99.90;;;;;;4935159;29;20052;-96
2022/07/15 11:57:37;;;;;;;0.40;0.30;;;18.60;99.90;;;;;;4919327;29;20490;-96
2022/07/15 12:00:06;;;;;;;0.40;0.30;;;18.70;99.90;;;;;;4919093;29;20047;-95
2022/07/15 12:02:42;;;;;;;0.45;0.40;;;18.70;99.90;;;;;;4919290;29;20055;-96
2022/07/15 12:05:08;;;;;;;2.78;0.40;;;18.80;99.90;;;;;;4919349;29;20107;-96
2022/07/15 12:07:47;;;;;;;;;;;18.50;99.90;;;;;;4920407;29;20118;-95
2022/07/15 12:10:16;;;;;;;0.28;0.28;;;19.00;99.90;;;;;;4919921;29;19933;-96
2022/07/15 12:12:56;;;;;;;0.22;0.22;;;19.00;99.90;;;;;;4914401;29;20067;-96
2022/07/15 12:15:28;;;;;;;0.75;0.75;;;19.00;99.90;;;;;;4935418;29;20429;-96
2022/07/15 12:17:55;;;;;;;0.22;0.20;;;18.00;99.90;;;;;;4903250;29;20047;-96
2022/07/15 12:20:28;;;;;;;0.35;0.35;;;19.10;99.90;;;;;;4888602;29;20052;-96
2022/07/15 12:23:11;;;;;;;2.65;0.55;;;19.10;99.90;;;;;;4918656;29;20131;-96
2022/07/15 12:25:47;;;;;;;2.10;0.40;;;18.70;99.90;;;;;;4903762;29;20063;-96
2022/07/15 12:28:29;;;;;;;0.43;0.35;;;19.30;99.90;;;;;;4903497;29;20052;-96
2022/07/15 12:31:03;;;;;;;0.43;0.38;;;19.30;99.90;;;;;;4903091;29;20051;-95
2022/07/15 12:33:38;;;;;;;0.40;0.38;;;19.40;99.90;;;;;;4919453;29;20078;-94
2022/07/15 12:36:18;;;;;;;0.55;0.30;;;19.50;99.90;;;;;;4934645;29;20111;-96
2022/07/15 12:39:21;;;;;;;0.17;0.17;;;19.60;99.90;;;;;;4903286;29;20048;-95
2022/07/15 12:42:09;;;;;;;1.95;0.60;;;19.70;99.90;;;;;;4898966;29;20040;-96
2022/07/15 12:44:37;;;;;;;0.25;0.25;;;19.80;99.90;;;;;;4919563;29;20048;-96
2022/07/15 12:47:06;;;;;;;0.60;0.28;;;20.00;99.90;;;;;;4920241;29;20055;-96
2022/07/15 12:49:54;;;;;;;0.52;0.50;;;20.00;99.90;;;;;;4922333;29;20051;-96
2022/07/15 12:52:27;;;;;;;0.65;0.30;;;20.10;99.90;;;;;;4922325;29;20532;-93
2022/07/15 12:54:55;;;;;;;0.55;0.30;;;20.20;99.90;;;;;;4953320;29;20106;-96
2022/07/15 12:57:52;;;;;;;0.20;0.20;;;20.20;99.90;;;;;;4924369;29;20078;-95
2022/07/15 13:00:25;;;;;;;0.40;0.40;;;20.30;99.90;;;;;;4923448;29;20066;-92
2022/07/15 13:02:59;;;;;;;1.55;0.35;;;20.30;99.90;;;;;;4940688;29;20306;-94
2022/07/15 13:05:29;;;;;;;0.30;0.30;;;20.30;99.90;;;;;;4941544;29;20082;-96
2022/07/15 13:08:00;;;;;;;1.17;0.55;;;20.40;99.90;;;;;;4924479;29;20047;-94
2022/07/15 13:10:30;;;;;;;0.20;0.20;;;20.30;99.90;;;;;;4957358;29;20073;-94
2022/07/15 13:12:58;;;;;;;0.30;0.30;;;20.10;99.90;;;;;;4935024;29;20082;-94
2022/07/15 13:15:32;;;;;;;0.17;0.17;;;20.10;99.90;;;;;;4925675;29;20051;-94
2022/07/15 13:17:58;;;;;;;0.20;0.20;;;20.00;99.90;;;;;;4940871;29;20058;-95
2022/07/15 13:20:27;;;;;;;0.80;0.50;;;20.00;99.90;;;;;;4925467;29;20047;-93
2022/07/15 13:22:56;;;;;;;0.20;0.20;;;19.90;99.90;;;;;;4940422;29;20047;-94
2022/07/15 13:25:26;;;;;;;0.50;0.50;;;19.90;99.90;;;;;;4925151;29;20047;-94
2022/07/15 13:28:02;;;;;;;0.35;0.35;;;19.90;99.90;;;;;;4940725;29;20417;-93
2022/07/15 13:30:31;;;;;;;0.20;0.20;;;19.80;99.90;;;;;;4925290;29;20051;-95
2022/07/15 13:33:02;;;;;;;1.02;0.28;;;19.70;99.90;;;;;;4924705;29;20047;-95
2022/07/15 13:35:28;;;;;;;0.57;0.57;;;19.70;99.90;;;;;;4925496;29;20054;-95
2022/07/15 13:37:59;;;;;;;1.75;0.60;;;19.60;99.90;;;;;;4924838;29;20043;-95